This is the latest recevied weather packets stored in our database for station/object SP1BMW-13. If no packets are shown the sender has not sent any weather packets the latest 10 day(s).
| Time | Temp. | Humidity | Pressure | Rain* | Wind** | Luminosity | Snow |
|---|---|---|---|---|---|---|---|
| 1787668205 | 23.33° C | 42% | 1017.8 hPa | 0 mm | 2.24 m/s, 63° | 446 W/m² | - |
| 1787668146 | 23.33° C | 45% | 1017.9 hPa | 0 mm | 0.89 m/s, 32° | 453 W/m² | - |
| 1787668086 | 23.33° C | 45% | 1017.9 hPa | 0 mm | 0.45 m/s, 108° | 457 W/m² | - |
| 1787668026 | 23.33° C | 45% | 1018 hPa | 0 mm | 0.45 m/s, 4° | 463 W/m² | - |
| 1787667965 | 23.33° C | 43% | 1017.9 hPa | 0 mm | 0.89 m/s, 34° | 297 W/m² | - |
| 1787667906 | 23.33° C | 43% | 1017.8 hPa | 0 mm | 0.45 m/s, 49° | 115 W/m² | - |
| 1787667845 | 23.89° C | 43% | 1018 hPa | 0 mm | 0.89 m/s, 30° | 260 W/m² | - |
| 1787667785 | 23.89° C | 43% | 1017.9 hPa | 0 mm | 0.89 m/s, 44° | 154 W/m² | - |
| 1787667725 | 24.44° C | 42% | 1018 hPa | 0 mm | 1.79 m/s, 44° | 109 W/m² | - |
| 1787667666 | 24.44° C | 42% | 1018 hPa | 0 mm | 1.34 m/s, 43° | 112 W/m² | - |
| 1787667606 | 24.44° C | 42% | 1017.9 hPa | 0 mm | 0.89 m/s, 68° | 390 W/m² | - |
| 1787667545 | 24.44° C | 42% | 1017.9 hPa | 0 mm | 0.89 m/s, 35° | 435 W/m² | - |
| 1787667485 | 25° C | 41% | 1017.9 hPa | 0 mm | 0.89 m/s, 63° | 135 W/m² | - |
| 1787667425 | 25° C | 40% | 1018 hPa | 0 mm | 1.79 m/s, 51° | 472 W/m² | - |
| 1787667366 | 25° C | 41% | 1018 hPa | 0 mm | 0.89 m/s, 32° | 501 W/m² | - |
| 1787667306 | 25° C | 41% | 1017.8 hPa | 0 mm | 0.89 m/s, 48° | 510 W/m² | - |
| 1787667245 | 25° C | 40% | 1017.9 hPa | 0 mm | 1.79 m/s, 37° | 525 W/m² | - |
| 1787667186 | 25° C | 40% | 1018 hPa | 0 mm | 0.89 m/s, 77° | 542 W/m² | - |
| 1787667125 | 25° C | 41% | 1017.9 hPa | 0 mm | 0.45 m/s, 44° | 542 W/m² | - |
| 1787667065 | 25° C | 40% | 1017.9 hPa | 0 mm | 1.34 m/s, 15° | 544 W/m² | - |
| 1787667005 | 25° C | 39% | 1017.8 hPa | 0 mm | 1.34 m/s, 68° | 547 W/m² | - |
| 1787666945 | 24.44° C | 41% | 1017.7 hPa | 0 mm | 0.45 m/s, 15° | 548 W/m² | - |
| 1787666886 | 24.44° C | 41% | 1017.9 hPa | 0 mm | 0 m/s | 534 W/m² | - |
| 1787666825 | 24.44° C | 41% | 1018 hPa | 0 mm | 0 m/s | 543 W/m² | - |
| 1787666765 | 25° C | 38% | 1017.8 hPa | 0 mm | 1.34 m/s, 19° | 543 W/m² | - |
* Rain latest hour (hover to see other rain measurements)
** Current wind speed in m/s (hover to see current wind gust speed)